sensor_id;sensor_type;location;lat;lon;timestamp;temperature;humidity
5226;DHT22;2632;51.666;7.146;2023-03-24T00:01:05;12.00;99.90
5226;DHT22;2632;51.666;7.146;2023-03-24T00:03:32;12.00;99.90
5226;DHT22;2632;51.666;7.146;2023-03-24T00:06:02;12.00;99.90
5226;DHT22;2632;51.666;7.146;2023-03-24T00:08:32;12.00;99.90
5226;DHT22;2632;51.666;7.146;2023-03-24T00:11:04;12.20;99.90
5226;DHT22;2632;51.666;7.146;2023-03-24T00:13:32;12.00;99.90
5226;DHT22;2632;51.666;7.146;2023-03-24T00:16:10;11.90;99.90
5226;DHT22;2632;51.666;7.146;2023-03-24T00:18:38;12.00;99.90
5226;DHT22;2632;51.666;7.146;2023-03-24T00:21:06;11.90;99.90
5226;DHT22;2632;51.666;7.146;2023-03-24T00:23:34;11.90;99.90
5226;DHT22;2632;51.666;7.146;2023-03-24T00:26:11;11.90;99.90
5226;DHT22;2632;51.666;7.146;2023-03-24T00:28:43;11.90;99.90
5226;DHT22;2632;51.666;7.146;2023-03-24T00:31:11;11.90;99.90
5226;DHT22;2632;51.666;7.146;2023-03-24T00:33:41;12.00;99.90
5226;DHT22;2632;51.666;7.146;2023-03-24T00:36:09;12.00;99.90
5226;DHT22;2632;51.666;7.146;2023-03-24T00:38:40;11.90;99.90
5226;DHT22;2632;51.666;7.146;2023-03-24T00:41:07;12.00;99.90
5226;DHT22;2632;51.666;7.146;2023-03-24T00:43:36;12.00;99.90
5226;DHT22;2632;51.666;7.146;2023-03-24T00:46:06;12.00;99.90
5226;DHT22;2632;51.666;7.146;2023-03-24T00:48:34;12.00;99.90
5226;DHT22;2632;51.666;7.146;2023-03-24T00:51:01;12.00;99.90
5226;DHT22;2632;51.666;7.146;2023-03-24T00:53:28;12.00;99.90
5226;DHT22;2632;51.666;7.146;2023-03-24T00:55:56;12.00;99.90
5226;DHT22;2632;51.666;7.146;2023-03-24T00:58:24;12.00;99.90
5226;DHT22;2632;51.666;7.146;2023-03-24T01:00:56;12.00;99.90
5226;DHT22;2632;51.666;7.146;2023-03-24T01:03:24;12.00;99.90
5226;DHT22;2632;51.666;7.146;2023-03-24T01:05:59;12.10;99.90
5226;DHT22;2632;51.666;7.146;2023-03-24T01:08:30;12.00;99.90
5226;DHT22;2632;51.666;7.146;2023-03-24T01:10:56;12.00;99.90
5226;DHT22;2632;51.666;7.146;2023-03-24T01:13:28;12.00;99.90
5226;DHT22;2632;51.666;7.146;2023-03-24T01:15:55;12.00;99.90
5226;DHT22;2632;51.666;7.146;2023-03-24T01:18:22;12.00;99.90
5226;DHT22;2632;51.666;7.146;2023-03-24T01:20:50;12.00;99.90
5226;DHT22;2632;51.666;7.146;2023-03-24T01:23:19;12.00;99.90
5226;DHT22;2632;51.666;7.146;2023-03-24T01:25:47;12.00;99.90
5226;DHT22;2632;51.666;7.146;2023-03-24T01:28:21;12.10;99.90
5226;DHT22;2632;51.666;7.146;2023-03-24T01:30:51;12.10;99.90
5226;DHT22;2632;51.666;7.146;2023-03-24T01:33:19;12.10;99.90
5226;DHT22;2632;51.666;7.146;2023-03-24T01:35:46;12.10;99.90
5226;DHT22;2632;51.666;7.146;2023-03-24T01:38:14;12.10;99.90
5226;DHT22;2632;51.666;7.146;2023-03-24T01:40:43;12.10;99.90
5226;DHT22;2632;51.666;7.146;2023-03-24T01:43:27;12.10;99.90
5226;DHT22;2632;51.666;7.146;2023-03-24T01:46:11;12.40;99.90
5226;DHT22;2632;51.666;7.146;2023-03-24T01:48:52;12.10;99.90
5226;DHT22;2632;51.666;7.146;2023-03-24T01:51:27;12.10;99.90
5226;DHT22;2632;51.666;7.146;2023-03-24T01:56:30;12.20;99.90
5226;DHT22;2632;51.666;7.146;2023-03-24T01:59:01;12.20;99.90
5226;DHT22;2632;51.666;7.146;2023-03-24T02:01:30;12.10;99.90
5226;DHT22;2632;51.666;7.146;2023-03-24T02:03:59;12.20;99.90
5226;DHT22;2632;51.666;7.146;2023-03-24T02:06:33;12.20;99.90
5226;DHT22;2632;51.666;7.146;2023-03-24T02:09:00;12.20;99.90
5226;DHT22;2632;51.666;7.146;2023-03-24T02:11:30;12.20;99.90
5226;DHT22;2632;51.666;7.146;2023-03-24T02:13:57;12.20;99.90
5226;DHT22;2632;51.666;7.146;2023-03-24T02:16:47;12.20;99.90
5226;DHT22;2632;51.666;7.146;2023-03-24T02:31:01;12.20;99.90
5226;DHT22;2632;51.666;7.146;2023-03-24T02:36:31;12.20;99.90
5226;DHT22;2632;51.666;7.146;2023-03-24T02:39:28;12.20;99.90
5226;DHT22;2632;51.666;7.146;2023-03-24T02:50:33;12.20;99.90
5226;DHT22;2632;51.666;7.146;2023-03-24T02:53:14;12.20;99.90
5226;DHT22;2632;51.666;7.146;2023-03-24T02:55:46;12.20;99.90
5226;DHT22;2632;51.666;7.146;2023-03-24T03:00:54;12.20;99.90
5226;DHT22;2632;51.666;7.146;2023-03-24T03:03:35;12.20;99.90
5226;DHT22;2632;51.666;7.146;2023-03-24T03:06:22;12.20;99.90
5226;DHT22;2632;51.666;7.146;2023-03-24T03:08:50;12.20;99.90
5226;DHT22;2632;51.666;7.146;2023-03-24T03:11:19;12.20;99.90
5226;DHT22;2632;51.666;7.146;2023-03-24T03:16:33;12.30;99.90
5226;DHT22;2632;51.666;7.146;2023-03-24T03:19:40;12.30;99.90
5226;DHT22;2632;51.666;7.146;2023-03-24T03:22:19;12.30;99.90
5226;DHT22;2632;51.666;7.146;2023-03-24T03:24:51;12.30;99.90
5226;DHT22;2632;51.666;7.146;2023-03-24T03:27:24;12.40;99.90
5226;DHT22;2632;51.666;7.146;2023-03-24T03:30:08;12.40;99.90
5226;DHT22;2632;51.666;7.146;2023-03-24T03:32:42;12.50;99.90
5226;DHT22;2632;51.666;7.146;2023-03-24T03:35:14;12.50;99.90
5226;DHT22;2632;51.666;7.146;2023-03-24T03:37:50;12.50;99.90
5226;DHT22;2632;51.666;7.146;2023-03-24T03:40:23;12.60;99.90
5226;DHT22;2632;51.666;7.146;2023-03-24T03:42:51;12.70;99.90
5226;DHT22;2632;51.666;7.146;2023-03-24T03:45:18;12.60;99.90
5226;DHT22;2632;51.666;7.146;2023-03-24T03:47:45;12.70;99.90
5226;DHT22;2632;51.666;7.146;2023-03-24T03:50:12;12.70;99.90
5226;DHT22;2632;51.666;7.146;2023-03-24T03:52:39;12.50;99.90
5226;DHT22;2632;51.666;7.146;2023-03-24T03:55:07;12.70;99.90
5226;DHT22;2632;51.666;7.146;2023-03-24T03:57:34;12.70;99.90
5226;DHT22;2632;51.666;7.146;2023-03-24T04:00:04;12.80;99.90
5226;DHT22;2632;51.666;7.146;2023-03-24T04:05:35;12.80;99.90
5226;DHT22;2632;51.666;7.146;2023-03-24T04:14:05;12.90;99.90
5226;DHT22;2632;51.666;7.146;2023-03-24T04:20:01;13.00;99.90
5226;DHT22;2632;51.666;7.146;2023-03-24T04:28:04;13.00;99.90
5226;DHT22;2632;51.666;7.146;2023-03-24T04:30:56;13.00;99.90
5226;DHT22;2632;51.666;7.146;2023-03-24T04:33:36;13.00;99.90
5226;DHT22;2632;51.666;7.146;2023-03-24T04:36:16;13.00;99.90
5226;DHT22;2632;51.666;7.146;2023-03-24T04:38:48;13.00;99.90
5226;DHT22;2632;51.666;7.146;2023-03-24T04:41:20;13.10;99.90
5226;DHT22;2632;51.666;7.146;2023-03-24T04:43:47;13.20;99.90
5226;DHT22;2632;51.666;7.146;2023-03-24T04:46:15;13.20;99.90
5226;DHT22;2632;51.666;7.146;2023-03-24T04:48:44;13.20;99.90
5226;DHT22;2632;51.666;7.146;2023-03-24T04:51:15;13.20;99.90
5226;DHT22;2632;51.666;7.146;2023-03-24T04:53:42;13.20;99.90
5226;DHT22;2632;51.666;7.146;2023-03-24T04:57:00;13.20;99.90
5226;DHT22;2632;51.666;7.146;2023-03-24T04:59:30;13.20;99.90
5226;DHT22;2632;51.666;7.146;2023-03-24T05:02:00;13.20;99.90
5226;DHT22;2632;51.666;7.146;2023-03-24T05:04:28;13.20;99.90
5226;DHT22;2632;51.666;7.146;2023-03-24T05:06:55;13.50;99.90
5226;DHT22;2632;51.666;7.146;2023-03-24T05:09:24;13.10;99.90
5226;DHT22;2632;51.666;7.146;2023-03-24T05:11:51;13.00;99.90
5226;DHT22;2632;51.666;7.146;2023-03-24T05:14:18;13.00;99.90
5226;DHT22;2632;51.666;7.146;2023-03-24T05:16:45;12.70;99.90
5226;DHT22;2632;51.666;7.146;2023-03-24T05:19:12;13.00;99.90
5226;DHT22;2632;51.666;7.146;2023-03-24T05:21:38;13.00;99.90
5226;DHT22;2632;51.666;7.146;2023-03-24T05:24:05;12.80;99.90
5226;DHT22;2632;51.666;7.146;2023-03-24T05:26:33;12.80;99.90
5226;DHT22;2632;51.666;7.146;2023-03-24T05:29:00;12.70;99.90
5226;DHT22;2632;51.666;7.146;2023-03-24T05:31:26;12.60;99.90
5226;DHT22;2632;51.666;7.146;2023-03-24T05:33:53;12.50;99.90
5226;DHT22;2632;51.666;7.146;2023-03-24T05:36:20;12.30;99.90
5226;DHT22;2632;51.666;7.146;2023-03-24T05:38:47;12.20;99.90
5226;DHT22;2632;51.666;7.146;2023-03-24T05:41:14;12.10;99.90
5226;DHT22;2632;51.666;7.146;2023-03-24T05:43:40;12.00;99.90
5226;DHT22;2632;51.666;7.146;2023-03-24T05:46:07;11.70;99.90
5226;DHT22;2632;51.666;7.146;2023-03-24T05:48:34;11.80;99.90
5226;DHT22;2632;51.666;7.146;2023-03-24T05:51:01;11.80;99.90
5226;DHT22;2632;51.666;7.146;2023-03-24T05:53:27;11.70;99.90
5226;DHT22;2632;51.666;7.146;2023-03-24T05:55:54;11.60;99.90
5226;DHT22;2632;51.666;7.146;2023-03-24T05:58:24;11.70;99.90
5226;DHT22;2632;51.666;7.146;2023-03-24T06:00:50;11.60;99.90
5226;DHT22;2632;51.666;7.146;2023-03-24T06:03:17;11.60;99.90
5226;DHT22;2632;51.666;7.146;2023-03-24T06:05:44;11.60;99.90
5226;DHT22;2632;51.666;7.146;2023-03-24T06:08:11;11.50;99.90
5226;DHT22;2632;51.666;7.146;2023-03-24T06:10:38;11.80;99.90
5226;DHT22;2632;51.666;7.146;2023-03-24T06:13:06;12.30;99.90
5226;DHT22;2632;51.666;7.146;2023-03-24T06:15:34;11.80;99.90
5226;DHT22;2632;51.666;7.146;2023-03-24T06:18:01;11.80;99.90
5226;DHT22;2632;51.666;7.146;2023-03-24T06:20:30;11.80;99.90
5226;DHT22;2632;51.666;7.146;2023-03-24T06:22:57;11.70;99.90
5226;DHT22;2632;51.666;7.146;2023-03-24T06:25:25;11.70;99.90
5226;DHT22;2632;51.666;7.146;2023-03-24T06:27:53;11.60;99.90
5226;DHT22;2632;51.666;7.146;2023-03-24T06:30:20;11.60;99.90
5226;DHT22;2632;51.666;7.146;2023-03-24T06:32:47;11.80;99.90
5226;DHT22;2632;51.666;7.146;2023-03-24T06:35:15;12.10;99.90
5226;DHT22;2632;51.666;7.146;2023-03-24T06:37:42;12.20;99.90
5226;DHT22;2632;51.666;7.146;2023-03-24T06:40:09;12.60;99.90
5226;DHT22;2632;51.666;7.146;2023-03-24T06:42:39;12.50;99.90
5226;DHT22;2632;51.666;7.146;2023-03-24T06:45:07;12.90;99.90
5226;DHT22;2632;51.666;7.146;2023-03-24T06:47:34;13.40;99.90
5226;DHT22;2632;51.666;7.146;2023-03-24T06:50:03;13.80;99.90
5226;DHT22;2632;51.666;7.146;2023-03-24T06:52:29;13.80;99.90
5226;DHT22;2632;51.666;7.146;2023-03-24T06:54:56;15.20;99.90
5226;DHT22;2632;51.666;7.146;2023-03-24T06:57:23;15.40;98.60
5226;DHT22;2632;51.666;7.146;2023-03-24T06:59:54;15.90;98.10
5226;DHT22;2632;51.666;7.146;2023-03-24T07:02:21;16.80;95.90
5226;DHT22;2632;51.666;7.146;2023-03-24T07:04:48;17.20;93.90
5226;DHT22;2632;51.666;7.146;2023-03-24T07:07:15;17.60;93.10
5226;DHT22;2632;51.666;7.146;2023-03-24T07:09:45;18.00;90.30
5226;DHT22;2632;51.666;7.146;2023-03-24T07:12:12;17.40;90.40
5226;DHT22;2632;51.666;7.146;2023-03-24T07:14:40;17.40;90.80
5226;DHT22;2632;51.666;7.146;2023-03-24T07:17:06;18.70;87.30
5226;DHT22;2632;51.666;7.146;2023-03-24T07:19:33;17.60;85.90
5226;DHT22;2632;51.666;7.146;2023-03-24T07:22:00;18.10;88.40
5226;DHT22;2632;51.666;7.146;2023-03-24T07:24:26;17.70;84.10
5226;DHT22;2632;51.666;7.146;2023-03-24T07:26:55;19.40;78.90
5226;DHT22;2632;51.666;7.146;2023-03-24T07:29:22;20.50;74.30
5226;DHT22;2632;51.666;7.146;2023-03-24T07:31:49;20.70;64.60
5226;DHT22;2632;51.666;7.146;2023-03-24T07:34:16;21.60;63.60
5226;DHT22;2632;51.666;7.146;2023-03-24T07:36:43;24.10;54.90
5226;DHT22;2632;51.666;7.146;2023-03-24T07:39:09;26.40;47.20
5226;DHT22;2632;51.666;7.146;2023-03-24T07:41:36;26.90;43.90
5226;DHT22;2632;51.666;7.146;2023-03-24T07:44:03;25.80;42.50
5226;DHT22;2632;51.666;7.146;2023-03-24T07:46:29;26.40;43.80
5226;DHT22;2632;51.666;7.146;2023-03-24T07:48:56;26.50;41.70
5226;DHT22;2632;51.666;7.146;2023-03-24T07:51:34;28.20;40.20
5226;DHT22;2632;51.666;7.146;2023-03-24T07:54:05;23.60;43.70
5226;DHT22;2632;51.666;7.146;2023-03-24T07:56:32;20.40;52.60
5226;DHT22;2632;51.666;7.146;2023-03-24T07:58:58;19.10;60.00
5226;DHT22;2632;51.666;7.146;2023-03-24T08:01:25;18.60;67.70
5226;DHT22;2632;51.666;7.146;2023-03-24T08:03:52;19.10;63.60
5226;DHT22;2632;51.666;7.146;2023-03-24T08:06:20;20.40;61.20
5226;DHT22;2632;51.666;7.146;2023-03-24T08:08:47;21.00;56.40
5226;DHT22;2632;51.666;7.146;2023-03-24T08:11:13;22.10;52.30
5226;DHT22;2632;51.666;7.146;2023-03-24T08:13:40;22.30;51.50
5226;DHT22;2632;51.666;7.146;2023-03-24T08:16:07;21.60;49.60
5226;DHT22;2632;51.666;7.146;2023-03-24T08:18:34;20.90;55.50
5226;DHT22;2632;51.666;7.146;2023-03-24T08:21:01;20.40;58.10
5226;DHT22;2632;51.666;7.146;2023-03-24T08:23:27;20.00;56.70
5226;DHT22;2632;51.666;7.146;2023-03-24T08:25:54;19.80;60.70
5226;DHT22;2632;51.666;7.146;2023-03-24T08:28:21;19.60;62.80
5226;DHT22;2632;51.666;7.146;2023-03-24T08:30:48;20.50;59.00
5226;DHT22;2632;51.666;7.146;2023-03-24T08:33:15;20.60;56.00
5226;DHT22;2632;51.666;7.146;2023-03-24T08:35:42;20.20;57.70
5226;DHT22;2632;51.666;7.146;2023-03-24T08:38:11;19.00;60.40
5226;DHT22;2632;51.666;7.146;2023-03-24T08:40:42;18.90;62.30
5226;DHT22;2632;51.666;7.146;2023-03-24T08:43:13;17.60;65.20
5226;DHT22;2632;51.666;7.146;2023-03-24T08:45:40;16.90;70.10
5226;DHT22;2632;51.666;7.146;2023-03-24T08:48:07;16.60;74.20
5226;DHT22;2632;51.666;7.146;2023-03-24T08:50:38;16.80;76.80
5226;DHT22;2632;51.666;7.146;2023-03-24T08:53:05;17.00;77.80
5226;DHT22;2632;51.666;7.146;2023-03-24T08:55:32;17.40;73.50
5226;DHT22;2632;51.666;7.146;2023-03-24T08:57:59;17.90;73.00
5226;DHT22;2632;51.666;7.146;2023-03-24T09:00:26;18.30;70.70
5226;DHT22;2632;51.666;7.146;2023-03-24T09:02:55;18.60;68.20
5226;DHT22;2632;51.666;7.146;2023-03-24T09:05:23;19.00;67.30
5226;DHT22;2632;51.666;7.146;2023-03-24T09:08:06;17.90;64.70
5226;DHT22;2632;51.666;7.146;2023-03-24T09:10:33;18.30;68.40
5226;DHT22;2632;51.666;7.146;2023-03-24T09:13:00;18.30;68.00
5226;DHT22;2632;51.666;7.146;2023-03-24T09:15:27;18.50;68.30
5226;DHT22;2632;51.666;7.146;2023-03-24T09:17:53;17.40;71.60
5226;DHT22;2632;51.666;7.146;2023-03-24T09:20:20;17.70;73.10
5226;DHT22;2632;51.666;7.146;2023-03-24T09:22:47;17.70;73.90
5226;DHT22;2632;51.666;7.146;2023-03-24T09:25:19;17.70;73.90
5226;DHT22;2632;51.666;7.146;2023-03-24T09:27:46;17.60;71.90
5226;DHT22;2632;51.666;7.146;2023-03-24T09:30:15;17.80;75.10
5226;DHT22;2632;51.666;7.146;2023-03-24T09:32:43;17.40;76.10
5226;DHT22;2632;51.666;7.146;2023-03-24T09:35:10;17.60;77.60
5226;DHT22;2632;51.666;7.146;2023-03-24T09:37:38;18.90;72.60
5226;DHT22;2632;51.666;7.146;2023-03-24T09:40:05;18.80;71.50
5226;DHT22;2632;51.666;7.146;2023-03-24T09:42:36;18.40;70.80
5226;DHT22;2632;51.666;7.146;2023-03-24T09:45:11;17.90;70.90
5226;DHT22;2632;51.666;7.146;2023-03-24T09:47:41;17.90;70.60
5226;DHT22;2632;51.666;7.146;2023-03-24T09:50:31;18.10;73.30
5226;DHT22;2632;51.666;7.146;2023-03-24T09:53:12;18.20;69.80
5226;DHT22;2632;51.666;7.146;2023-03-24T09:55:42;17.90;72.50
5226;DHT22;2632;51.666;7.146;2023-03-24T09:58:11;18.60;70.40
5226;DHT22;2632;51.666;7.146;2023-03-24T10:00:39;17.50;71.20
5226;DHT22;2632;51.666;7.146;2023-03-24T10:03:26;16.90;75.80
5226;DHT22;2632;51.666;7.146;2023-03-24T10:08:35;17.20;80.40
5226;DHT22;2632;51.666;7.146;2023-03-24T10:13:42;17.80;77.90
5226;DHT22;2632;51.666;7.146;2023-03-24T10:16:21;18.10;77.40
5226;DHT22;2632;51.666;7.146;2023-03-24T10:19:17;19.10;73.30
5226;DHT22;2632;51.666;7.146;2023-03-24T10:21:57;19.70;67.20
5226;DHT22;2632;51.666;7.146;2023-03-24T10:24:50;20.30;62.20
5226;DHT22;2632;51.666;7.146;2023-03-24T10:27:31;21.10;62.10
5226;DHT22;2632;51.666;7.146;2023-03-24T10:30:10;20.40;61.50
5226;DHT22;2632;51.666;7.146;2023-03-24T10:32:39;19.10;63.50
5226;DHT22;2632;51.666;7.146;2023-03-24T10:35:20;18.40;66.40
5226;DHT22;2632;51.666;7.146;2023-03-24T10:37:49;18.30;65.50
5226;DHT22;2632;51.666;7.146;2023-03-24T10:40:19;19.00;66.70
5226;DHT22;2632;51.666;7.146;2023-03-24T10:42:48;18.70;64.00
5226;DHT22;2632;51.666;7.146;2023-03-24T10:45:37;17.90;67.00
5226;DHT22;2632;51.666;7.146;2023-03-24T10:48:05;18.10;68.50
5226;DHT22;2632;51.666;7.146;2023-03-24T10:50:33;17.40;67.60
5226;DHT22;2632;51.666;7.146;2023-03-24T10:53:08;16.90;73.80
5226;DHT22;2632;51.666;7.146;2023-03-24T10:55:37;16.70;73.90
5226;DHT22;2632;51.666;7.146;2023-03-24T11:00:46;16.30;74.00
5226;DHT22;2632;51.666;7.146;2023-03-24T11:03:22;17.30;71.80
5226;DHT22;2632;51.666;7.146;2023-03-24T11:06:00;17.80;66.60
5226;DHT22;2632;51.666;7.146;2023-03-24T11:08:34;17.70;64.20
5226;DHT22;2632;51.666;7.146;2023-03-24T11:13:40;16.60;68.60
5226;DHT22;2632;51.666;7.146;2023-03-24T11:16:15;16.20;72.90
5226;DHT22;2632;51.666;7.146;2023-03-24T11:18:56;16.40;72.80
5226;DHT22;2632;51.666;7.146;2023-03-24T11:21:25;16.30;72.30
5226;DHT22;2632;51.666;7.146;2023-03-24T11:23:51;16.30;74.50
5226;DHT22;2632;51.666;7.146;2023-03-24T11:26:21;16.30;76.90
5226;DHT22;2632;51.666;7.146;2023-03-24T11:28:56;16.30;74.90
5226;DHT22;2632;51.666;7.146;2023-03-24T11:31:29;16.50;72.70
5226;DHT22;2632;51.666;7.146;2023-03-24T11:39:16;16.90;71.50
5226;DHT22;2632;51.666;7.146;2023-03-24T11:52:39;19.90;59.80
5226;DHT22;2632;51.666;7.146;2023-03-24T11:55:18;19.30;58.40
5226;DHT22;2632;51.666;7.146;2023-03-24T11:58:23;19.10;59.60
5226;DHT22;2632;51.666;7.146;2023-03-24T12:01:01;18.80;59.60
5226;DHT22;2632;51.666;7.146;2023-03-24T12:17:20;17.30;66.60
5226;DHT22;2632;51.666;7.146;2023-03-24T12:23:07;17.40;68.20
5226;DHT22;2632;51.666;7.146;2023-03-24T12:25:51;17.40;67.90
5226;DHT22;2632;51.666;7.146;2023-03-24T12:28:32;17.60;64.60
5226;DHT22;2632;51.666;7.146;2023-03-24T12:34:22;17.20;66.40
5226;DHT22;2632;51.666;7.146;2023-03-24T12:39:42;17.90;64.60
5226;DHT22;2632;51.666;7.146;2023-03-24T12:42:14;18.80;65.10
5226;DHT22;2632;51.666;7.146;2023-03-24T12:45:06;18.10;64.10
5226;DHT22;2632;51.666;7.146;2023-03-24T12:50:49;18.10;60.60
5226;DHT22;2632;51.666;7.146;2023-03-24T12:58:49;17.60;63.30
5226;DHT22;2632;51.666;7.146;2023-03-24T13:01:30;17.00;64.90
5226;DHT22;2632;51.666;7.146;2023-03-24T13:04:15;17.00;66.00
5226;DHT22;2632;51.666;7.146;2023-03-24T13:07:10;17.20;66.80
5226;DHT22;2632;51.666;7.146;2023-03-24T13:09:54;19.00;63.70
5226;DHT22;2632;51.666;7.146;2023-03-24T13:15:21;20.00;60.30
5226;DHT22;2632;51.666;7.146;2023-03-24T13:17:53;21.00;58.90
5226;DHT22;2632;51.666;7.146;2023-03-24T13:20:26;21.10;54.00
5226;DHT22;2632;51.666;7.146;2023-03-24T13:22:55;20.10;55.70
5226;DHT22;2632;51.666;7.146;2023-03-24T13:26:16;19.30;57.00
5226;DHT22;2632;51.666;7.146;2023-03-24T13:28:24;18.20;60.70
5226;DHT22;2632;51.666;7.146;2023-03-24T13:30:54;18.50;59.80
5226;DHT22;2632;51.666;7.146;2023-03-24T13:33:27;19.00;59.00
5226;DHT22;2632;51.666;7.146;2023-03-24T13:38:46;20.10;58.30
5226;DHT22;2632;51.666;7.146;2023-03-24T13:41:22;19.60;57.60
5226;DHT22;2632;51.666;7.146;2023-03-24T13:44:02;19.10;58.30
5226;DHT22;2632;51.666;7.146;2023-03-24T13:46:34;18.40;57.90
5226;DHT22;2632;51.666;7.146;2023-03-24T13:49:04;17.90;58.10
5226;DHT22;2632;51.666;7.146;2023-03-24T13:51:34;17.30;60.00
5226;DHT22;2632;51.666;7.146;2023-03-24T13:54:13;17.00;63.00
5226;DHT22;2632;51.666;7.146;2023-03-24T13:56:47;16.80;64.80
5226;DHT22;2632;51.666;7.146;2023-03-24T14:04:47;17.80;63.00
5226;DHT22;2632;51.666;7.146;2023-03-24T14:10:10;17.50;66.30
5226;DHT22;2632;51.666;7.146;2023-03-24T14:15:28;15.90;77.00
5226;DHT22;2632;51.666;7.146;2023-03-24T14:18:37;16.00;85.10
5226;DHT22;2632;51.666;7.146;2023-03-24T14:21:06;15.50;90.70
5226;DHT22;2632;51.666;7.146;2023-03-24T14:23:47;15.30;96.60
5226;DHT22;2632;51.666;7.146;2023-03-24T14:28:54;15.00;94.40
5226;DHT22;2632;51.666;7.146;2023-03-24T14:31:26;14.70;95.50
5226;DHT22;2632;51.666;7.146;2023-03-24T14:36:39;14.10;98.30
5226;DHT22;2632;51.666;7.146;2023-03-24T14:39:31;13.80;99.90
5226;DHT22;2632;51.666;7.146;2023-03-24T14:41:58;13.50;99.90
5226;DHT22;2632;51.666;7.146;2023-03-24T14:47:13;13.40;99.90
5226;DHT22;2632;51.666;7.146;2023-03-24T14:49:43;14.50;99.90
5226;DHT22;2632;51.666;7.146;2023-03-24T14:54:49;15.20;99.90
5226;DHT22;2632;51.666;7.146;2023-03-24T14:57:29;15.00;99.90
5226;DHT22;2632;51.666;7.146;2023-03-24T15:02:41;14.70;99.90
5226;DHT22;2632;51.666;7.146;2023-03-24T15:08:12;14.00;99.90
5226;DHT22;2632;51.666;7.146;2023-03-24T15:11:02;13.80;99.90
5226;DHT22;2632;51.666;7.146;2023-03-24T15:23:55;14.20;99.90
5226;DHT22;2632;51.666;7.146;2023-03-24T15:26:23;14.10;99.90
5226;DHT22;2632;51.666;7.146;2023-03-24T15:28:55;14.10;99.90
5226;DHT22;2632;51.666;7.146;2023-03-24T15:31:23;13.80;99.90
5226;DHT22;2632;51.666;7.146;2023-03-24T15:33:50;13.80;99.90
5226;DHT22;2632;51.666;7.146;2023-03-24T15:36:22;13.40;99.90
5226;DHT22;2632;51.666;7.146;2023-03-24T15:38:50;13.40;99.90
5226;DHT22;2632;51.666;7.146;2023-03-24T15:41:21;13.30;99.90
5226;DHT22;2632;51.666;7.146;2023-03-24T15:43:51;13.20;99.90
5226;DHT22;2632;51.666;7.146;2023-03-24T15:46:29;13.30;99.90
5226;DHT22;2632;51.666;7.146;2023-03-24T15:48:58;13.40;99.90
5226;DHT22;2632;51.666;7.146;2023-03-24T15:51:48;13.30;99.90
5226;DHT22;2632;51.666;7.146;2023-03-24T15:54:24;13.40;99.90
5226;DHT22;2632;51.666;7.146;2023-03-24T15:57:16;13.40;99.90
5226;DHT22;2632;51.666;7.146;2023-03-24T15:59:45;13.30;99.90
5226;DHT22;2632;51.666;7.146;2023-03-24T16:02:34;13.20;99.90
5226;DHT22;2632;51.666;7.146;2023-03-24T16:05:25;13.10;99.90
5226;DHT22;2632;51.666;7.146;2023-03-24T16:08:07;13.20;99.90
5226;DHT22;2632;51.666;7.146;2023-03-24T16:10:57;13.50;99.90
5226;DHT22;2632;51.666;7.146;2023-03-24T16:13:25;13.60;99.90
5226;DHT22;2632;51.666;7.146;2023-03-24T16:15:56;13.40;99.90
5226;DHT22;2632;51.666;7.146;2023-03-24T16:18:29;13.50;99.90
5226;DHT22;2632;51.666;7.146;2023-03-24T16:21:00;13.50;99.90
5226;DHT22;2632;51.666;7.146;2023-03-24T16:23:29;13.50;99.90
5226;DHT22;2632;51.666;7.146;2023-03-24T16:25:56;13.40;99.90
5226;DHT22;2632;51.666;7.146;2023-03-24T16:28:22;13.40;99.90
5226;DHT22;2632;51.666;7.146;2023-03-24T16:31:00;13.50;99.90
5226;DHT22;2632;51.666;7.146;2023-03-24T16:33:28;13.40;99.90
5226;DHT22;2632;51.666;7.146;2023-03-24T16:35:55;13.30;99.90
5226;DHT22;2632;51.666;7.146;2023-03-24T16:38:22;13.30;99.90
5226;DHT22;2632;51.666;7.146;2023-03-24T16:40:54;13.30;99.90
5226;DHT22;2632;51.666;7.146;2023-03-24T16:43:21;13.40;99.90
5226;DHT22;2632;51.666;7.146;2023-03-24T16:45:48;13.50;99.90
5226;DHT22;2632;51.666;7.146;2023-03-24T16:48:16;13.30;99.90
5226;DHT22;2632;51.666;7.146;2023-03-24T16:50:49;13.70;99.90
5226;DHT22;2632;51.666;7.146;2023-03-24T16:53:17;13.40;99.90
5226;DHT22;2632;51.666;7.146;2023-03-24T16:55:44;13.90;99.90
5226;DHT22;2632;51.666;7.146;2023-03-24T16:58:14;14.20;99.90
5226;DHT22;2632;51.666;7.146;2023-03-24T17:00:42;13.70;99.90
5226;DHT22;2632;51.666;7.146;2023-03-24T17:03:09;13.60;99.90
5226;DHT22;2632;51.666;7.146;2023-03-24T17:05:43;13.40;99.90
5226;DHT22;2632;51.666;7.146;2023-03-24T17:08:11;13.20;99.90
5226;DHT22;2632;51.666;7.146;2023-03-24T17:10:38;13.20;99.90
5226;DHT22;2632;51.666;7.146;2023-03-24T17:13:06;13.20;99.90
5226;DHT22;2632;51.666;7.146;2023-03-24T17:15:32;13.10;99.90
5226;DHT22;2632;51.666;7.146;2023-03-24T17:17:59;12.80;99.90
5226;DHT22;2632;51.666;7.146;2023-03-24T17:20:26;12.90;99.90
5226;DHT22;2632;51.666;7.146;2023-03-24T17:22:55;12.70;99.90
5226;DHT22;2632;51.666;7.146;2023-03-24T17:25:22;12.70;99.90
5226;DHT22;2632;51.666;7.146;2023-03-24T17:27:50;12.50;99.90
5226;DHT22;2632;51.666;7.146;2023-03-24T17:30:21;12.50;99.90
5226;DHT22;2632;51.666;7.146;2023-03-24T17:32:48;12.50;99.90
5226;DHT22;2632;51.666;7.146;2023-03-24T17:35:17;12.40;99.90
5226;DHT22;2632;51.666;7.146;2023-03-24T17:37:45;12.30;99.90
5226;DHT22;2632;51.666;7.146;2023-03-24T17:40:15;12.20;99.90
5226;DHT22;2632;51.666;7.146;2023-03-24T17:42:44;12.00;99.90
5226;DHT22;2632;51.666;7.146;2023-03-24T17:45:16;12.10;99.90
5226;DHT22;2632;51.666;7.146;2023-03-24T17:47:44;12.10;99.90
5226;DHT22;2632;51.666;7.146;2023-03-24T17:50:11;11.90;99.90
5226;DHT22;2632;51.666;7.146;2023-03-24T17:52:44;11.90;99.90
5226;DHT22;2632;51.666;7.146;2023-03-24T17:55:12;11.80;99.90
5226;DHT22;2632;51.666;7.146;2023-03-24T17:57:39;11.40;99.90
5226;DHT22;2632;51.666;7.146;2023-03-24T18:00:07;11.60;99.90
5226;DHT22;2632;51.666;7.146;2023-03-24T18:02:41;15.50;99.90
5226;DHT22;2632;51.666;7.146;2023-03-24T18:05:09;11.50;99.90
5226;DHT22;2632;51.666;7.146;2023-03-24T18:07:38;11.50;99.90
5226;DHT22;2632;51.666;7.146;2023-03-24T18:10:05;11.40;99.90
5226;DHT22;2632;51.666;7.146;2023-03-24T18:12:33;11.40;99.90
5226;DHT22;2632;51.666;7.146;2023-03-24T18:15:01;11.40;99.90
5226;DHT22;2632;51.666;7.146;2023-03-24T18:17:28;11.40;99.90
5226;DHT22;2632;51.666;7.146;2023-03-24T18:19:56;11.30;99.90
5226;DHT22;2632;51.666;7.146;2023-03-24T18:22:25;11.30;99.90
5226;DHT22;2632;51.666;7.146;2023-03-24T18:24:51;11.20;99.90
5226;DHT22;2632;51.666;7.146;2023-03-24T18:27:19;11.20;99.90
5226;DHT22;2632;51.666;7.146;2023-03-24T18:29:46;11.20;99.90
5226;DHT22;2632;51.666;7.146;2023-03-24T18:32:13;11.10;99.90
5226;DHT22;2632;51.666;7.146;2023-03-24T18:34:40;11.10;99.90
5226;DHT22;2632;51.666;7.146;2023-03-24T18:37:10;11.10;99.90
5226;DHT22;2632;51.666;7.146;2023-03-24T18:39:37;11.10;99.90
5226;DHT22;2632;51.666;7.146;2023-03-24T18:42:06;11.10;99.90
5226;DHT22;2632;51.666;7.146;2023-03-24T18:44:33;10.80;99.90
5226;DHT22;2632;51.666;7.146;2023-03-24T18:47:00;11.00;99.90
5226;DHT22;2632;51.666;7.146;2023-03-24T18:49:26;11.00;99.90
5226;DHT22;2632;51.666;7.146;2023-03-24T18:51:53;11.00;99.90
5226;DHT22;2632;51.666;7.146;2023-03-24T18:54:20;10.90;99.90
5226;DHT22;2632;51.666;7.146;2023-03-24T18:56:47;10.90;99.90
5226;DHT22;2632;51.666;7.146;2023-03-24T18:59:13;10.90;99.90